createdAt,value
2023-05-21T00:00:20.851Z,8.43
2023-05-21T00:02:47.492Z,7.97
2023-05-21T00:05:15.647Z,8.73
2023-05-21T00:07:42.323Z,8.27
2023-05-21T00:10:09.147Z,8.30
2023-05-21T00:12:35.845Z,8.37
2023-05-21T00:15:02.430Z,8.50
2023-05-21T00:17:29.070Z,8.30
2023-05-21T00:19:57.062Z,8.00
2023-05-21T00:22:24.055Z,8.30
2023-05-21T00:24:50.802Z,8.20
2023-05-21T00:27:17.401Z,8.17
2023-05-21T00:29:44.566Z,8.17
2023-05-21T00:32:11.391Z,8.33
2023-05-21T00:34:38.437Z,8.00
2023-05-21T00:37:04.974Z,7.60
2023-05-21T00:39:33.988Z,7.30
2023-05-21T00:42:04.235Z,7.10
2023-05-21T00:44:34.485Z,8.07
2023-05-21T00:47:02.382Z,7.87
2023-05-21T00:49:29.297Z,6.83
2023-05-21T00:51:55.958Z,6.37
2023-05-21T00:54:23.769Z,7.30
2023-05-21T00:56:50.896Z,7.00
2023-05-21T00:59:17.823Z,6.73
2023-05-21T01:01:45.779Z,6.47
2023-05-21T01:04:12.548Z,6.37
2023-05-21T01:06:39.086Z,5.83
2023-05-21T01:09:07.035Z,6.43
2023-05-21T01:11:53.901Z,6.37
2023-05-21T01:14:20.962Z,6.20
2023-05-21T01:16:49.713Z,5.30
2023-05-21T01:19:17.467Z,5.73
2023-05-21T01:21:49.708Z,5.53
2023-05-21T01:24:16.708Z,5.60
2023-05-21T01:26:44.398Z,5.20
2023-05-21T01:29:14.723Z,5.40
2023-05-21T01:31:52.773Z,5.00
2023-05-21T01:34:21.593Z,5.37
2023-05-21T01:36:55.940Z,5.07
2023-05-21T01:39:27.258Z,5.50
2023-05-21T01:41:55.080Z,5.70
2023-05-21T01:44:22.866Z,5.30
2023-05-21T01:46:50.075Z,4.97
2023-05-21T01:49:17.857Z,4.93
2023-05-21T01:51:44.509Z,5.20
2023-05-21T01:54:11.062Z,5.17
2023-05-21T01:56:37.648Z,5.33
2023-05-21T01:59:04.258Z,4.90
2023-05-21T02:01:31.326Z,5.13
2023-05-21T02:03:58.318Z,5.10
2023-05-21T02:06:27.208Z,5.57
2023-05-21T02:08:56.735Z,4.90
2023-05-21T02:11:23.634Z,5.43
2023-05-21T02:13:50.260Z,4.93
2023-05-21T02:16:16.941Z,5.33
2023-05-21T02:18:44.023Z,5.17
2023-05-21T02:21:13.608Z,5.20
2023-05-21T02:23:40.180Z,5.37
2023-05-21T02:26:06.757Z,4.93
2023-05-21T02:28:34.008Z,5.33
2023-05-21T02:31:01.242Z,4.63
2023-05-21T02:33:30.174Z,5.30
2023-05-21T02:35:56.764Z,5.77
2023-05-21T02:38:26.169Z,5.10
2023-05-21T02:40:53.509Z,5.17
2023-05-21T02:43:20.226Z,4.90
2023-05-21T02:45:46.824Z,5.23
2023-05-21T02:48:13.536Z,5.10
2023-05-21T02:50:40.135Z,5.20
2023-05-21T02:53:07.420Z,5.00
2023-05-21T02:55:34.108Z,5.63
2023-05-21T02:58:00.745Z,5.07
2023-05-21T03:00:27.344Z,5.63
2023-05-21T03:02:53.979Z,4.93
2023-05-21T03:05:20.960Z,5.07
2023-05-21T03:07:47.521Z,5.27
2023-05-21T03:10:14.147Z,4.97
2023-05-21T03:12:43.328Z,5.17
2023-05-21T03:15:10.177Z,5.73
2023-05-21T03:17:36.808Z,5.67
2023-05-21T03:20:05.384Z,5.50
2023-05-21T03:22:31.954Z,5.30
2023-05-21T03:24:58.496Z,5.40
2023-05-21T03:27:25.575Z,5.73
2023-05-21T03:29:55.152Z,5.80
2023-05-21T03:32:23.955Z,5.50
2023-05-21T03:34:50.914Z,5.57
2023-05-21T03:37:17.447Z,5.83
2023-05-21T03:39:44.001Z,5.57
2023-05-21T03:42:10.529Z,5.90
2023-05-21T03:44:37.090Z,5.97
2023-05-21T03:47:03.677Z,6.03
2023-05-21T03:49:30.300Z,5.67
2023-05-21T03:51:56.852Z,5.67
2023-05-21T03:54:23.414Z,5.87
2023-05-21T03:56:50.327Z,5.90
2023-05-21T03:59:16.949Z,6.13
2023-05-21T04:01:44.011Z,5.50
2023-05-21T04:04:10.807Z,5.47
2023-05-21T04:06:40.019Z,6.37
2023-05-21T04:09:06.524Z,6.10
2023-05-21T04:11:34.008Z,6.03
2023-05-21T04:14:01.348Z,5.23
2023-05-21T04:16:27.960Z,6.20
2023-05-21T04:18:55.712Z,6.00
2023-05-21T04:21:22.479Z,5.77
2023-05-21T04:23:49.182Z,5.70
2023-05-21T04:26:16.395Z,5.50
2023-05-21T04:28:42.960Z,6.40
2023-05-21T04:31:09.543Z,6.30
2023-05-21T04:33:36.083Z,6.17
2023-05-21T04:36:04.885Z,5.23
2023-05-21T04:38:31.459Z,6.03
2023-05-21T04:40:58.926Z,6.03
2023-05-21T04:43:28.884Z,6.10
2023-05-21T04:45:55.748Z,5.80
2023-05-21T04:48:25.049Z,6.70
2023-05-21T04:50:53.228Z,6.00
2023-05-21T04:53:19.868Z,5.70
2023-05-21T04:55:47.194Z,5.90
2023-05-21T04:58:13.898Z,5.83
2023-05-21T05:00:42.332Z,6.27
2023-05-21T05:03:09.173Z,6.40
2023-05-21T05:05:36.034Z,6.70
2023-05-21T05:08:02.918Z,6.20
2023-05-21T05:10:29.690Z,5.77
2023-05-21T05:12:56.205Z,6.17
2023-05-21T05:15:22.799Z,6.27
2023-05-21T05:17:50.708Z,6.30
2023-05-21T05:20:17.349Z,6.10
2023-05-21T05:22:43.881Z,5.97
2023-05-21T05:25:10.446Z,6.97
2023-05-21T05:27:38.512Z,6.17
2023-05-21T05:30:05.525Z,6.70
2023-05-21T05:32:32.133Z,5.90
2023-05-21T05:35:00.356Z,6.03
2023-05-21T05:37:28.089Z,6.23
2023-05-21T05:39:54.977Z,6.57
2023-05-21T05:42:21.532Z,6.20
2023-05-21T05:44:48.131Z,6.50
2023-05-21T05:47:14.798Z,7.03
2023-05-21T05:49:41.839Z,6.30
2023-05-21T05:52:08.498Z,6.90
2023-05-21T05:54:35.000Z,7.03
2023-05-21T05:57:01.619Z,6.43
2023-05-21T05:59:28.147Z,6.37
2023-05-21T06:01:54.748Z,6.40
2023-05-21T06:04:21.315Z,6.10
2023-05-21T06:06:48.414Z,6.27
2023-05-21T06:09:15.056Z,6.67
2023-05-21T06:11:41.609Z,6.53
2023-05-21T06:14:08.170Z,8.13
2023-05-21T06:16:35.165Z,7.50
2023-05-21T06:19:01.735Z,7.63
2023-05-21T06:21:28.633Z,7.50
2023-05-21T06:23:55.129Z,7.53
2023-05-21T06:26:22.603Z,6.63
2023-05-21T06:28:49.184Z,7.90
2023-05-21T06:31:16.532Z,6.93
2023-05-21T06:33:43.251Z,7.23
2023-05-21T06:36:09.943Z,7.37
2023-05-21T06:38:36.526Z,7.30
2023-05-21T06:41:04.345Z,7.23
2023-05-21T06:43:30.916Z,7.43
2023-05-21T06:45:57.572Z,7.37
2023-05-21T06:48:24.141Z,7.33
2023-05-21T06:50:50.862Z,7.57
2023-05-21T06:53:17.483Z,7.30
2023-05-21T06:55:45.136Z,7.73
2023-05-21T06:58:11.979Z,7.33
2023-05-21T07:00:38.502Z,7.80
2023-05-21T07:03:05.101Z,7.80
2023-05-21T07:05:31.714Z,8.60
2023-05-21T07:07:58.275Z,8.50
2023-05-21T07:10:24.812Z,7.50
2023-05-21T07:12:51.346Z,7.30
2023-05-21T07:15:17.939Z,7.17
2023-05-21T07:17:44.716Z,8.10
2023-05-21T07:20:11.803Z,8.17
2023-05-21T07:22:39.071Z,7.77
2023-05-21T07:25:06.501Z,8.23
2023-05-21T07:27:33.030Z,8.70
2023-05-21T07:29:59.531Z,8.50
2023-05-21T07:32:27.068Z,8.43
2023-05-21T07:34:54.397Z,8.57
2023-05-21T07:37:21.308Z,8.50
2023-05-21T07:39:47.944Z,8.47
2023-05-21T07:42:14.541Z,9.03
2023-05-21T07:44:43.876Z,9.50
2023-05-21T07:47:10.444Z,8.90
2023-05-21T07:49:37.017Z,9.27
2023-05-21T07:52:03.707Z,8.97
2023-05-21T07:54:30.255Z,9.50
2023-05-21T07:56:56.867Z,10.23
2023-05-21T07:59:23.418Z,8.73
2023-05-21T08:01:50.331Z,9.43
2023-05-21T08:04:17.098Z,9.63
2023-05-21T08:06:44.562Z,9.17
2023-05-21T08:09:12.386Z,9.57
2023-05-21T08:11:38.923Z,9.90
2023-05-21T08:14:05.570Z,9.87
2023-05-21T08:16:32.311Z,10.33
2023-05-21T08:18:58.949Z,10.20
2023-05-21T08:21:26.101Z,10.63
2023-05-21T08:23:52.851Z,10.47
2023-05-21T08:26:19.911Z,10.53
2023-05-21T08:28:46.450Z,9.90
2023-05-21T08:31:13.009Z,9.90
2023-05-21T08:33:39.598Z,9.70
2023-05-21T08:36:09.242Z,10.20
2023-05-21T08:38:36.803Z,11.33
2023-05-21T08:41:05.130Z,10.63
2023-05-21T08:43:31.706Z,10.43
2023-05-21T08:46:00.620Z,10.13
2023-05-21T08:48:27.394Z,10.20
2023-05-21T08:50:54.469Z,10.37
2023-05-21T08:53:28.066Z,11.47
2023-05-21T08:55:56.432Z,10.63
2023-05-21T08:58:23.086Z,11.10
2023-05-21T09:00:49.816Z,10.43
2023-05-21T09:03:16.687Z,10.37
2023-05-21T09:05:44.422Z,11.57
2023-05-21T09:08:19.252Z,10.83
2023-05-21T09:10:48.275Z,10.57
2023-05-21T09:13:15.316Z,10.83
2023-05-21T09:15:42.065Z,10.50
2023-05-21T09:18:08.731Z,10.90
2023-05-21T09:20:35.358Z,11.60
2023-05-21T09:23:06.226Z,10.60
2023-05-21T09:25:33.373Z,12.73
2023-05-21T09:27:59.914Z,12.50
2023-05-21T09:30:34.841Z,11.93
2023-05-21T09:33:03.675Z,12.70
2023-05-21T09:35:30.260Z,13.10
2023-05-21T09:37:57.732Z,12.67
2023-05-21T09:40:24.562Z,11.33
2023-05-21T09:42:52.261Z,12.57
2023-05-21T09:45:18.867Z,12.17
2023-05-21T09:47:46.466Z,12.97
2023-05-21T09:50:23.146Z,12.20
2023-05-21T09:52:51.252Z,12.10
2023-05-21T09:55:17.759Z,12.07
2023-05-21T09:57:45.096Z,13.53
2023-05-21T10:00:24.918Z,12.37
2023-05-21T10:02:54.891Z,13.10
2023-05-21T10:05:25.461Z,12.23
2023-05-21T10:07:52.922Z,12.20
2023-05-21T10:10:21.432Z,13.13
2023-05-21T10:12:50.289Z,13.47
2023-05-21T10:15:17.595Z,12.83
2023-05-21T10:17:44.751Z,13.37
2023-05-21T10:20:11.582Z,13.33
2023-05-21T10:22:38.305Z,13.20
2023-05-21T10:25:05.754Z,13.03
2023-05-21T10:27:32.920Z,12.97
2023-05-21T10:29:59.779Z,12.87
2023-05-21T10:32:27.029Z,12.87
2023-05-21T10:34:54.138Z,12.73
2023-05-21T10:37:23.101Z,13.67
2023-05-21T10:39:50.794Z,13.23
2023-05-21T10:42:24.888Z,12.87
2023-05-21T10:44:54.457Z,12.37
2023-05-21T10:47:37.409Z,13.00
2023-05-21T10:50:12.208Z,13.00
2023-05-21T10:52:46.197Z,13.37
2023-05-21T10:55:27.859Z,12.87
2023-05-21T10:58:13.129Z,12.13
2023-05-21T11:00:41.150Z,13.07
2023-05-21T11:03:08.296Z,12.47
2023-05-21T11:05:55.414Z,12.43
2023-05-21T11:08:29.134Z,12.77
2023-05-21T11:10:58.134Z,13.60
2023-05-21T11:13:25.561Z,13.77
2023-05-21T11:15:57.953Z,12.77
2023-05-21T11:18:44.496Z,12.33
2023-05-21T11:21:11.982Z,14.00
2023-05-21T11:23:53.595Z,13.37
2023-05-21T11:26:24.041Z,13.63
2023-05-21T11:28:50.916Z,12.73
2023-05-21T11:31:27.169Z,13.50
2023-05-21T11:34:09.123Z,13.87
2023-05-21T11:36:37.620Z,14.10
2023-05-21T11:39:21.876Z,13.37
2023-05-21T11:41:51.277Z,13.00
2023-05-21T11:44:17.835Z,11.57
2023-05-21T11:46:44.383Z,13.07
2023-05-21T11:49:11.092Z,13.10
2023-05-21T11:51:37.658Z,12.43
2023-05-21T11:54:04.265Z,13.50
2023-05-21T11:56:32.056Z,12.60
2023-05-21T11:58:58.589Z,12.93
2023-05-21T12:01:25.122Z,11.67
2023-05-21T12:03:52.162Z,13.20
2023-05-21T12:06:18.778Z,12.73
2023-05-21T12:08:51.177Z,12.87
2023-05-21T12:11:17.867Z,13.90
2023-05-21T12:13:44.436Z,12.77
2023-05-21T12:16:11.981Z,13.60
2023-05-21T12:18:38.716Z,12.73
2023-05-21T12:21:09.245Z,15.07
2023-05-21T12:23:37.157Z,13.07
2023-05-21T12:26:03.959Z,13.10
2023-05-21T12:28:30.906Z,13.67
2023-05-21T12:30:57.400Z,13.80
2023-05-21T12:33:26.169Z,13.20
2023-05-21T12:35:52.808Z,14.23
2023-05-21T12:38:19.453Z,14.00
2023-05-21T12:40:46.089Z,13.87
2023-05-21T12:43:13.132Z,13.70
2023-05-21T12:45:39.806Z,14.07
2023-05-21T12:48:06.623Z,13.80
2023-05-21T12:50:33.178Z,13.73
2023-05-21T12:52:59.713Z,12.83
2023-05-21T12:55:26.706Z,13.77
2023-05-21T12:58:08.494Z,13.70
2023-05-21T13:00:35.960Z,13.53
2023-05-21T13:03:04.823Z,12.20
2023-05-21T13:05:31.591Z,13.17
2023-05-21T13:07:58.164Z,13.40
2023-05-21T13:10:24.702Z,13.07
2023-05-21T13:12:51.275Z,13.30
2023-05-21T13:15:18.374Z,12.97
2023-05-21T13:17:44.982Z,14.60
2023-05-21T13:20:15.589Z,13.07
2023-05-21T13:22:49.283Z,12.80
2023-05-21T13:25:21.425Z,13.37
2023-05-21T13:27:51.988Z,13.80
2023-05-21T13:30:18.986Z,11.97
2023-05-21T13:32:45.926Z,12.70
2023-05-21T13:35:12.672Z,12.43
2023-05-21T13:37:40.205Z,12.50
2023-05-21T13:40:07.627Z,13.07
2023-05-21T13:42:34.862Z,11.80
2023-05-21T13:45:01.514Z,13.53
2023-05-21T13:47:28.338Z,12.93
2023-05-21T13:49:54.892Z,12.33
2023-05-21T13:52:21.936Z,12.63
2023-05-21T13:54:48.522Z,11.67
2023-05-21T13:57:15.295Z,12.60
2023-05-21T13:59:41.875Z,12.17
2023-05-21T14:02:09.154Z,12.00
2023-05-21T14:04:38.405Z,11.70
2023-05-21T14:07:05.931Z,11.70
2023-05-21T14:09:32.478Z,12.30
2023-05-21T14:11:59.030Z,12.37
2023-05-21T14:14:25.881Z,12.90
2023-05-21T14:16:52.477Z,12.07
2023-05-21T14:19:19.188Z,12.23
2023-05-21T14:21:45.805Z,13.47
2023-05-21T14:24:12.304Z,12.77
2023-05-21T14:26:41.121Z,12.37
2023-05-21T14:29:07.779Z,12.90
2023-05-21T14:31:34.370Z,12.30
2023-05-21T14:34:01.931Z,11.93
2023-05-21T14:36:28.621Z,11.77
2023-05-21T14:38:57.435Z,13.37
2023-05-21T14:41:29.578Z,12.40
2023-05-21T14:43:56.191Z,11.00
2023-05-21T14:46:22.823Z,11.97
2023-05-21T14:48:49.573Z,12.37
2023-05-21T14:51:16.373Z,11.40
2023-05-21T14:53:43.006Z,10.90
2023-05-21T14:56:09.559Z,12.40
2023-05-21T14:58:36.152Z,11.93
2023-05-21T15:01:04.292Z,11.37
2023-05-21T15:03:31.202Z,13.20
2023-05-21T15:06:00.604Z,13.73
2023-05-21T15:08:27.186Z,12.97
2023-05-21T15:10:53.708Z,13.30
2023-05-21T15:13:21.596Z,13.07
2023-05-21T15:15:48.260Z,11.87
2023-05-21T15:18:14.856Z,11.57
2023-05-21T15:20:41.518Z,11.47
2023-05-21T15:23:16.957Z,11.67
2023-05-21T15:25:44.250Z,12.77
2023-05-21T15:28:12.253Z,11.73
2023-05-21T15:30:39.161Z,11.73
2023-05-21T15:33:05.981Z,12.10
2023-05-21T15:35:32.693Z,11.73
2023-05-21T15:37:59.412Z,12.00
2023-05-21T15:40:27.248Z,11.70
2023-05-21T15:42:54.108Z,11.87
2023-05-21T15:45:20.786Z,11.63
2023-05-21T15:47:47.504Z,11.70
2023-05-21T15:50:14.151Z,11.17
2023-05-21T15:52:41.389Z,11.90
2023-05-21T15:55:08.129Z,10.40
2023-05-21T15:57:34.661Z,10.47
2023-05-21T16:00:01.694Z,10.97
2023-05-21T16:02:28.323Z,11.70
2023-05-21T16:04:55.166Z,11.10
2023-05-21T16:07:23.248Z,11.33
2023-05-21T16:09:49.837Z,10.97
2023-05-21T16:12:16.820Z,11.23
2023-05-21T16:14:43.403Z,12.67
2023-05-21T16:17:10.023Z,11.00
2023-05-21T16:19:36.717Z,12.00
2023-05-21T16:22:03.354Z,11.37
2023-05-21T16:24:29.964Z,10.97
2023-05-21T16:26:56.575Z,11.60
2023-05-21T16:29:23.104Z,11.67
2023-05-21T16:31:49.717Z,12.13
2023-05-21T16:34:16.480Z,12.10
2023-05-21T16:36:43.004Z,11.70
2023-05-21T16:39:09.567Z,12.20
2023-05-21T16:41:36.094Z,11.87
2023-05-21T16:44:02.634Z,11.17
2023-05-21T16:46:29.571Z,11.37
2023-05-21T16:48:56.163Z,10.90
2023-05-21T16:51:22.678Z,12.13
2023-05-21T16:53:49.214Z,12.13
2023-05-21T16:56:16.020Z,12.03
2023-05-21T16:58:42.597Z,12.70
2023-05-21T17:01:09.152Z,12.47
2023-05-21T17:03:36.291Z,12.93
2023-05-21T17:06:02.959Z,12.17
2023-05-21T17:08:29.496Z,12.33
2023-05-21T17:10:56.173Z,12.77
2023-05-21T17:13:23.412Z,12.30
2023-05-21T17:15:53.324Z,12.33
2023-05-21T17:18:20.025Z,12.57
2023-05-21T17:20:46.675Z,12.10
2023-05-21T17:23:13.292Z,11.10
2023-05-21T17:25:40.630Z,11.93
2023-05-21T17:28:07.580Z,13.17
2023-05-21T17:30:34.198Z,12.17
2023-05-21T17:33:02.350Z,12.70
2023-05-21T17:35:29.060Z,13.43
2023-05-21T17:37:55.645Z,12.23
2023-05-21T17:40:24.632Z,12.70
2023-05-21T17:42:51.950Z,11.60
2023-05-21T17:45:18.800Z,11.63
2023-05-21T17:47:45.544Z,12.67
2023-05-21T17:50:12.267Z,13.07
2023-05-21T17:52:38.856Z,11.57
2023-05-21T17:55:05.885Z,13.40
2023-05-21T17:57:32.444Z,12.30
2023-05-21T17:59:59.006Z,12.63
2023-05-21T18:02:27.553Z,12.60
2023-05-21T18:04:54.242Z,13.30
2023-05-21T18:07:22.371Z,13.90
2023-05-21T18:09:48.926Z,13.60
2023-05-21T18:12:15.833Z,13.00
2023-05-21T18:14:42.391Z,13.87
2023-05-21T18:17:09.046Z,13.73
2023-05-21T18:19:35.818Z,13.43
2023-05-21T18:22:02.518Z,14.47
2023-05-21T18:24:29.103Z,14.30
2023-05-21T18:26:56.423Z,14.70
2023-05-21T18:29:22.935Z,13.67
2023-05-21T18:31:49.553Z,14.57
2023-05-21T18:34:17.527Z,13.93
2023-05-21T18:36:44.212Z,14.23
2023-05-21T18:39:10.741Z,14.00
2023-05-21T18:41:37.647Z,13.73
2023-05-21T18:44:06.097Z,13.43
2023-05-21T18:46:33.270Z,14.50
2023-05-21T18:49:00.595Z,13.30
2023-05-21T18:51:27.203Z,14.77
2023-05-21T18:53:53.801Z,13.97
2023-05-21T18:56:21.938Z,13.73
2023-05-21T18:58:48.728Z,14.60
2023-05-21T19:01:15.610Z,14.40
2023-05-21T19:03:42.270Z,14.20
2023-05-21T19:06:09.037Z,14.07
2023-05-21T19:08:35.983Z,13.97
2023-05-21T19:11:02.584Z,14.37
2023-05-21T19:13:29.629Z,14.70
2023-05-21T19:15:57.537Z,13.63
2023-05-21T19:18:30.372Z,14.70
2023-05-21T19:20:57.336Z,13.70
2023-05-21T19:23:24.939Z,14.53
2023-05-21T19:25:51.608Z,13.30
2023-05-21T19:28:18.966Z,13.87
2023-05-21T19:30:46.476Z,13.83
2023-05-21T19:33:13.342Z,14.73
2023-05-21T19:35:41.711Z,15.10
2023-05-21T19:38:10.446Z,14.20
2023-05-21T19:40:37.105Z,14.40
2023-05-21T19:43:03.958Z,14.87
2023-05-21T19:45:30.502Z,13.90
2023-05-21T19:47:57.421Z,14.70
2023-05-21T19:50:24.739Z,15.07
2023-05-21T19:52:51.358Z,14.77
2023-05-21T19:55:20.379Z,15.90
2023-05-21T19:57:47.413Z,16.67
2023-05-21T20:00:14.671Z,16.33
2023-05-21T20:02:43.498Z,17.47
2023-05-21T20:05:10.203Z,17.20
2023-05-21T20:07:36.730Z,17.00
2023-05-21T20:10:03.421Z,18.60
2023-05-21T20:12:30.010Z,19.00
2023-05-21T20:14:57.044Z,17.17
2023-05-21T20:17:24.636Z,17.50
2023-05-21T20:19:51.196Z,18.67
2023-05-21T20:22:18.029Z,19.20
2023-05-21T20:24:44.544Z,18.70
2023-05-21T20:27:20.130Z,19.60
2023-05-21T20:29:46.920Z,20.20
2023-05-21T20:32:13.514Z,23.03
2023-05-21T20:34:54.240Z,23.33
2023-05-21T20:37:27.341Z,20.37
2023-05-21T20:39:58.000Z,20.03
2023-05-21T20:42:28.573Z,19.43
2023-05-21T20:44:55.596Z,17.70
2023-05-21T20:47:23.523Z,19.63
2023-05-21T20:49:53.777Z,19.23
2023-05-21T20:52:21.112Z,23.03
2023-05-21T20:54:49.018Z,24.00
2023-05-21T20:57:15.959Z,24.70
2023-05-21T20:59:43.242Z,23.13
2023-05-21T21:02:11.108Z,21.50
2023-05-21T21:04:38.173Z,22.47
2023-05-21T21:07:08.124Z,24.47
2023-05-21T21:09:34.726Z,23.50
2023-05-21T21:12:11.368Z,23.80
2023-05-21T21:14:48.009Z,24.27
2023-05-21T21:17:14.734Z,23.57
2023-05-21T21:19:41.384Z,24.90
2023-05-21T21:22:07.906Z,23.63
2023-05-21T21:24:34.521Z,23.43
2023-05-21T21:27:01.556Z,24.73
2023-05-21T21:29:28.080Z,23.90
2023-05-21T21:31:54.876Z,23.50
2023-05-21T21:34:23.555Z,24.47
2023-05-21T21:36:50.850Z,24.23
2023-05-21T21:39:17.758Z,24.23
2023-05-21T21:41:44.425Z,23.80
2023-05-21T21:44:10.976Z,23.43
2023-05-21T21:46:37.605Z,22.80
2023-05-21T21:49:04.447Z,24.20
2023-05-21T21:51:31.066Z,24.77
2023-05-21T21:53:57.593Z,24.03
2023-05-21T21:56:24.124Z,22.60
2023-05-21T21:58:50.718Z,21.70
2023-05-21T22:01:17.628Z,22.83
2023-05-21T22:03:44.228Z,21.73
2023-05-21T22:06:10.806Z,21.43
2023-05-21T22:08:37.361Z,20.87
2023-05-21T22:11:03.950Z,20.63
2023-05-21T22:13:30.494Z,19.67
2023-05-21T22:15:57.540Z,21.70
2023-05-21T22:18:38.779Z,21.43
2023-05-21T22:21:09.942Z,20.87
2023-05-21T22:23:37.275Z,20.97
2023-05-21T22:26:03.995Z,20.17
2023-05-21T22:28:36.280Z,21.43
2023-05-21T22:31:03.128Z,19.87
2023-05-21T22:33:29.956Z,18.87
2023-05-21T22:35:57.048Z,17.90
2023-05-21T22:38:23.615Z,16.73
2023-05-21T22:40:50.187Z,16.30
2023-05-21T22:43:16.801Z,15.93
2023-05-21T22:45:44.480Z,16.33
2023-05-21T22:48:11.087Z,15.97
2023-05-21T22:50:39.512Z,17.53
2023-05-21T22:53:06.651Z,17.47
2023-05-21T22:55:33.227Z,17.50
2023-05-21T22:57:59.818Z,15.40
2023-05-21T23:00:26.687Z,16.77
2023-05-21T23:02:54.566Z,15.40
2023-05-21T23:05:21.814Z,16.20
2023-05-21T23:07:48.380Z,17.27
2023-05-21T23:10:14.970Z,17.00
2023-05-21T23:12:41.714Z,17.00
2023-05-21T23:15:10.122Z,16.23
2023-05-21T23:17:37.176Z,18.53
2023-05-21T23:20:04.255Z,18.83
2023-05-21T23:22:30.884Z,18.17
2023-05-21T23:24:57.432Z,17.30
2023-05-21T23:27:24.176Z,16.67
2023-05-21T23:29:50.774Z,16.20
2023-05-21T23:32:17.353Z,15.77
2023-05-21T23:34:43.894Z,16.53
2023-05-21T23:37:10.965Z,15.67
2023-05-21T23:39:37.636Z,14.87
2023-05-21T23:42:04.408Z,14.97
2023-05-21T23:44:30.964Z,15.70
2023-05-21T23:46:57.524Z,14.97
2023-05-21T23:49:24.047Z,15.37
2023-05-21T23:51:51.002Z,13.50
2023-05-21T23:54:17.662Z,13.87
2023-05-21T23:56:44.236Z,13.57
2023-05-21T23:59:11.091Z,13.27
